Time;durP1;ratioP1;P1;durP2;ratioP2;P2;SDS_P1;SDS_P2;PMS_P1;PMS_P2;Temp;Humidity;BMP_temperature;BMP_pressure;BME280_temperature;BME280_humidity;BME280_pressure;Samples;Min_cycle;Max_cycle;Signal;HPM_P1;HPM_P2
2023/02/04 00:01:22;;;;;;;6.60;1.80;;;;;;;4.04;82.94;99686.69;126253;1306;114947;-65
2023/02/04 00:05:16;;;;;;;3.90;1.00;;;;;;;3.90;82.38;99701.27;126279;1289;129917;-66
2023/02/04 00:08:59;;;;;;;;;;;;;;;;;;;;;
2023/02/04 00:12:29;;;;;;;;;;;;;;;;;;;;;
2023/02/04 00:16:25;;;;;;;4.00;1.50;;;;;;;3.48;82.04;99720.20;126133;1300;114969;-65
2023/02/04 00:20:19;;;;;;;;;;;;;;;;;;;;;
2023/02/04 00:24:10;;;;;;;;;;;;;;;;;;;;;
2023/02/04 00:28:08;;;;;;;;;;;;;;;;;;;;;
2023/02/04 00:31:56;;;;;;;2.60;1.40;;;;;;;3.24;82.29;99737.69;126160;1313;114880;-66
2023/02/04 00:35:49;;;;;;;1.70;1.30;;;;;;;3.22;82.34;99751.34;126118;1308;114919;-64
2023/02/04 00:39:40;;;;;;;2.00;1.40;;;;;;;3.18;82.44;99768.52;126730;1304;114893;-65
2023/02/04 00:43:43;;;;;;;2.30;1.40;;;;;;;3.16;82.47;99775.83;126228;1298;129821;-66
2023/02/04 00:52:03;;;;;;;;;;;;;;;;;;;;;
2023/02/04 00:56:07;;;;;;;2.70;1.50;;;;;;;3.01;82.41;99794.41;127721;1285;128818;-65
2023/02/04 01:00:11;;;;;;;1.30;1.20;;;;;;;2.98;82.62;99813.02;126854;1312;115230;-64
2023/02/04 01:04:06;;;;;;;4.10;1.30;;;;;;;2.93;82.76;99820.90;121251;1323;5431670;-66
2023/02/04 01:08:07;;;;;;;2.20;1.30;;;;;;;2.87;82.74;99829.86;124907;1323;114928;-66
2023/02/04 01:12:02;;;;;;;;;;;;;;;;;;;;;
2023/02/04 01:15:56;;;;;;;;;;;;;;;;;;;;;
2023/02/04 01:20:17;;;;;;;3.90;1.50;;;;;;;2.69;83.01;99855.35;125734;1300;636169;-67
2023/02/04 01:23:55;;;;;;;;;;;;;;;;;;;;;
2023/02/04 01:27:52;;;;;;;2.80;1.80;;;;;;;2.57;83.21;99869.92;126554;1295;115244;-67
2023/02/04 01:31:37;;;;;;;;;;;;;;;;;;;;;
2023/02/04 01:35:37;;;;;;;6.30;2.20;;;;;;;2.47;83.23;99898.73;122575;1305;115409;-66
2023/02/04 01:39:32;;;;;;;5.10;4.60;;;;;;;2.38;82.88;99937.52;126880;1291;115552;-64
2023/02/04 01:43:27;;;;;;;;;;;;;;;;;;;;;
2023/02/04 01:47:21;;;;;;;;;;;;;;;;;;;;;
2023/02/04 01:55:32;;;;;;;;;;;;;;;;;;;;;
2023/02/04 01:59:19;;;;;;;21.60;15.80;;;;;;;1.24;81.49;100101.54;129080;1269;128825;-65
2023/02/04 02:03:37;;;;;;;18.50;14.40;;;;;;;1.07;81.30;100123.58;128863;1273;115007;-65
2023/02/04 02:07:28;;;;;;;22.60;16.80;;;;;;;0.90;81.51;100156.69;123626;1302;5497646;-66
2023/02/04 02:11:12;;;;;;;19.70;14.40;;;;;;;0.77;81.16;100190.23;127955;1302;114826;-64
2023/02/04 02:15:04;;;;;;;19.40;13.90;;;;;;;0.68;81.24;100211.08;126867;1289;115104;-65
2023/02/04 02:18:51;;;;;;;;;;;;;;;;;;;;;
2023/02/04 02:22:54;;;;;;;17.50;13.00;;;;;;;0.51;81.67;100258.16;125613;1301;129707;-65
2023/02/04 02:26:42;;;;;;;;;;;;;;;;;;;;;
2023/02/04 02:30:44;;;;;;;;;;;;;;;;;;;;;
2023/02/04 02:38:49;;;;;;;;;;;;;;;;;;;;;
2023/02/04 02:42:33;;;;;;;11.80;8.60;;;;;;;0.21;80.35;100408.75;128529;1278;129077;-64
2023/02/04 02:46:34;;;;;;;10.50;7.80;;;;;;;0.16;80.35;100427.56;128559;1277;115257;-63
2023/02/04 02:54:11;;;;;;;;;;;;;;;;;;;;;
2023/02/04 02:58:18;;;;;;;10.90;7.60;;;;;;;0.12;80.73;100502.41;128136;1297;114862;-64
2023/02/04 03:02:20;;;;;;;;;;;;;;;;;;;;;
2023/02/04 03:06:05;;;;;;;;;;;;;;;;;;;;;
2023/02/04 03:09:48;;;;;;;5.70;4.70;;;;;;;0.09;80.61;100567.38;125187;1307;116660;-65
2023/02/04 03:13:50;;;;;;;6.60;3.60;;;;;;;0.08;80.20;100591.98;124832;1323;114935;-64
2023/02/04 03:17:34;;;;;;;6.60;4.30;;;;;;;0.07;79.82;100616.58;124049;1327;115701;-64
2023/02/04 03:25:55;;;;;;;4.40;3.20;;;;;;;0.02;79.43;100660.46;126325;1305;635783;-63
2023/02/04 03:29:42;;;;;;;3.70;2.90;;;;;;;-0.01;79.47;100685.05;127586;1291;128951;-64
2023/02/04 03:33:41;;;;;;;;;;;;;;;;;;;;;
2023/02/04 03:41:44;;;;;;;9.50;4.30;;;;;;;-0.12;78.64;100765.98;121522;1308;115053;-64
2023/02/04 03:45:18;;;;;;;4.90;3.20;;;;;;;-0.14;78.77;100783.52;124176;1324;114960;-63
2023/02/04 03:49:04;;;;;;;6.00;3.90;;;;;;;-0.16;78.40;100807.40;124253;1321;115373;-63
2023/02/04 03:56:45;;;;;;;18.80;6.50;;;;;;;-0.19;78.75;100840.73;126313;1305;636116;-64
2023/02/04 04:00:50;;;;;;;11.20;5.50;;;;;;;-0.20;78.67;100861.98;129098;1289;127448;-63
2023/02/04 04:04:44;;;;;;;;;;;;;;;;;;;;;
2023/02/04 04:08:26;;;;;;;12.40;6.20;;;;;;;-0.23;78.02;100902.69;128850;1272;114837;-62
2023/02/04 04:12:14;;;;;;;9.30;6.40;;;;;;;-0.26;78.23;100911.98;124967;1287;114747;-64
2023/02/04 04:16:02;;;;;;;;;;;;;;;;;;;;;
2023/02/04 04:19:53;;;;;;;;;;;;;;;;;;;;;
2023/02/04 04:23:46;;;;;;;8.60;5.90;;;;;;;-0.28;77.80;100963.23;128400;1283;128926;-64
2023/02/04 04:27:50;;;;;;;9.20;5.10;;;;;;;-0.29;77.77;100967.08;127815;1280;115211;-63
2023/02/04 04:31:43;;;;;;;;;;;;;;;;;;;;;
2023/02/04 04:35:37;;;;;;;6.10;4.90;;;;;;;-0.32;77.38;100978.30;125670;1317;114883;-62
2023/02/04 04:39:28;;;;;;;;;;;;;;;;;;;;;
2023/02/04 04:43:16;;;;;;;9.30;6.10;;;;;;;-0.31;78.00;101008.83;125106;1321;128842;-64
2023/02/04 04:47:08;;;;;;;13.20;7.00;;;;;;;-0.31;77.98;101016.04;125351;1321;115462;-64
2023/02/04 04:55:11;;;;;;;;;;;;;;;;;;;;;
2023/02/04 04:59:07;;;;;;;9.70;7.20;;;;;;;-0.34;77.57;101066.23;128892;1284;129432;-63
2023/02/04 05:03:08;;;;;;;12.60;6.70;;;;;;;-0.35;77.22;101079.36;128552;1287;115257;-64
2023/02/04 05:07:00;;;;;;;9.30;6.50;;;;;;;-0.37;77.25;101084.79;127895;1297;114864;-64
2023/02/04 05:10:51;;;;;;;9.60;6.90;;;;;;;-0.39;77.36;101097.05;124651;1276;115383;-64
2023/02/04 05:14:19;;;;;;;11.10;7.50;;;;;;;-0.40;77.20;101114.77;128038;1276;114826;-64
2023/02/04 05:18:05;;;;;;;;;;;;;;;;;;;;;
2023/02/04 05:22:08;;;;;;;;;;;;;;;;;;;;;
2023/02/04 05:26:14;;;;;;;;;;;;;;;;;;;;;
2023/02/04 05:30:10;;;;;;;13.60;7.70;;;;;;;-0.43;76.98;101183.55;125817;1319;114911;-64
2023/02/04 05:34:13;;;;;;;10.30;6.90;;;;;;;-0.45;76.42;101192.13;124944;1310;114862;-64
2023/02/04 05:37:57;;;;;;;10.80;7.10;;;;;;;-0.46;76.34;101207.39;123828;1334;115014;-63
2023/02/04 05:41:51;;;;;;;;;;;;;;;;;;;;;
2023/02/04 05:45:52;;;;;;;10.90;6.70;;;;;;;-0.48;76.29;101214.38;123789;1332;115401;-64
2023/02/04 05:53:42;;;;;;;12.30;8.30;;;;;;;-0.49;76.29;101231.56;126404;1292;635708;-64
2023/02/04 05:57:30;;;;;;;7.90;5.40;;;;;;;-0.54;76.88;101248.36;128597;1273;128840;-64
2023/02/04 06:01:33;;;;;;;10.80;7.80;;;;;;;-0.57;77.04;101254.80;126857;1290;115275;-63
2023/02/04 06:09:13;;;;;;;;;;;;;;;;;;;;;
2023/02/04 06:17:34;;;;;;;12.70;8.30;;;;;;;-0.69;77.32;101313.44;126123;1297;635997;-63
2023/02/04 06:21:30;;;;;;;13.00;8.30;;;;;;;-0.79;77.16;101329.61;127315;1287;127611;-64
2023/02/04 06:25:25;;;;;;;;;;;;;;;;;;;;;
2023/02/04 06:29:20;;;;;;;;;;;;;;;;;;;;;
2023/02/04 06:33:07;;;;;;;;;;;;;;;;;;;;;
2023/02/04 06:37:05;;;;;;;11.50;7.60;;;;;;;-1.04;77.74;101398.50;123020;1342;115016;-63
2023/02/04 06:41:13;;;;;;;10.90;7.70;;;;;;;-1.03;77.69;101404.64;126305;1305;635754;-64
2023/02/04 06:45:02;;;;;;;12.70;8.10;;;;;;;-1.05;78.03;101419.52;129203;1268;128336;-64
2023/02/04 06:48:55;;;;;;;14.50;8.20;;;;;;;-1.04;78.16;101434.10;128842;1270;115168;-63
2023/02/04 06:52:52;;;;;;;10.80;7.20;;;;;;;-1.02;78.13;101453.59;127678;1294;116593;-65
2023/02/04 06:56:28;;;;;;;14.20;7.30;;;;;;;-1.01;77.69;101461.69;123547;1289;114941;-64
2023/02/04 07:00:24;;;;;;;11.30;6.60;;;;;;;-1.01;77.72;101478.16;127012;1292;114837;-64
2023/02/04 07:04:28;;;;;;;10.40;6.20;;;;;;;-0.99;77.87;101494.67;126561;1309;114944;-64
2023/02/04 07:08:28;;;;;;;;;;;;;;;;;;;;;
2023/02/04 07:16:13;;;;;;;8.50;6.30;;;;;;;-0.89;77.63;101532.02;126324;1295;636071;-64
2023/02/04 07:24:04;;;;;;;;;;;;;;;;;;;;;
2023/02/04 07:28:35;;;;;;;11.20;5.60;;;;;;;-0.74;77.71;101563.15;127025;1290;114916;-64
2023/02/04 07:31:59;;;;;;;8.00;5.10;;;;;;;-0.68;77.14;101574.13;121582;1321;114964;-62
2023/02/04 07:35:53;;;;;;;9.80;6.10;;;;;;;-0.69;77.63;101593.77;125432;1321;114866;-64
2023/02/04 07:39:38;;;;;;;7.50;5.10;;;;;;;-0.70;77.72;101597.26;124999;1322;114986;-64
2023/02/04 07:43:31;;;;;;;9.80;5.50;;;;;;;-0.70;76.81;101603.56;124968;1309;129823;-63
2023/02/04 07:47:33;;;;;;;11.70;6.60;;;;;;;-0.73;77.13;101615.96;125036;1305;115323;-65
2023/02/04 07:51:15;;;;;;;13.10;5.70;;;;;;;-0.75;77.23;101620.66;124321;1313;115009;-64
2023/02/04 07:55:17;;;;;;;10.30;5.20;;;;;;;-0.68;77.32;101623.77;124174;1332;114964;-64
2023/02/04 07:59:02;;;;;;;;;;;;;;;;;;;;;
2023/02/04 08:02:54;;;;;;;;;;;;;;;;;;;;;
2023/02/04 08:06:22;;;;;;;8.00;4.50;;;;;;;-0.15;77.35;101638.89;124836;1317;115469;-64
2023/02/04 08:10:25;;;;;;;10.20;4.90;;;;;;;0.04;77.50;101650.08;126430;1290;114913;-63
2023/02/04 08:14:25;;;;;;;9.40;5.20;;;;;;;0.24;76.74;101653.37;125922;1316;114980;-64
2023/02/04 08:18:12;;;;;;;6.20;4.30;;;;;;;0.46;76.66;101663.89;125352;1321;114856;-64
2023/02/04 08:22:14;;;;;;;7.20;4.50;;;;;;;0.70;76.57;101666.31;125381;1302;129668;-64
2023/02/04 08:26:06;;;;;;;10.60;4.50;;;;;;;1.00;76.23;101674.27;123990;1315;115427;-63
2023/02/04 08:29:57;;;;;;;13.00;4.40;;;;;;;1.20;75.87;101680.30;124230;1317;115200;-63
2023/02/04 08:33:16;;;;;;;8.70;4.30;;;;;;;1.30;75.12;101684.29;124131;1330;114942;-65
2023/02/04 08:36:52;;;;;;;9.00;4.20;;;;;;;1.35;75.07;101682.40;124868;1326;115052;-64
2023/02/04 08:40:36;;;;;;;6.20;3.90;;;;;;;1.42;74.70;101687.59;124825;1307;128781;-64
2023/02/04 08:44:27;;;;;;;10.30;3.70;;;;;;;1.48;74.85;101688.34;124419;1313;115328;-63
2023/02/04 08:48:15;;;;;;;8.00;3.60;;;;;;;1.56;74.95;101686.50;124139;1330;114949;-64
2023/02/04 08:52:14;;;;;;;;;;;;;;;;;;;;;
2023/02/04 09:00:10;;;;;;;6.60;3.70;;;;;;;2.06;74.65;101687.13;126401;1295;636160;-64
2023/02/04 09:04:16;;;;;;;7.30;3.80;;;;;;;2.08;73.56;101693.65;128774;1273;128744;-64
2023/02/04 09:08:16;;;;;;;7.80;3.40;;;;;;;2.06;73.59;101700.15;128383;1279;115258;-64
2023/02/04 09:12:11;;;;;;;;;;;;;;;;;;;;;
2023/02/04 09:15:38;;;;;;;9.00;4.20;;;;;;;2.04;73.27;101703.66;122382;1305;115080;-65
2023/02/04 09:19:17;;;;;;;;;;;;;;;;;;;;;
2023/02/04 09:22:57;;;;;;;;;;;;;;;;;;;;;
2023/02/04 09:26:31;;;;;;;;;;;;;;;;;;;;;
2023/02/04 09:30:28;;;;;;;7.00;4.50;;;;;;;2.04;73.52;101724.64;126296;1296;114978;-63
2023/02/04 09:33:54;;;;;;;9.00;3.80;;;;;;;2.02;72.99;101730.77;125814;1318;114970;-65
2023/02/04 09:37:46;;;;;;;8.00;4.90;;;;;;;1.96;73.24;101735.67;126674;1302;115048;-63
2023/02/04 09:41:30;;;;;;;8.60;4.70;;;;;;;2.00;73.37;101741.67;126610;1302;115019;-65
2023/02/04 09:45:02;;;;;;;8.40;4.10;;;;;;;1.99;73.08;101746.61;126439;1295;128786;-63
2023/02/04 09:48:58;;;;;;;8.10;4.20;;;;;;;1.92;72.83;101750.25;126119;1292;116443;-63
2023/02/04 09:52:38;;;;;;;6.00;3.60;;;;;;;1.90;73.25;101741.77;126964;1296;114976;-64
2023/02/04 09:56:31;;;;;;;;;;;;;;;;;;;;;
2023/02/04 10:00:33;;;;;;;7.60;4.00;;;;;;;1.89;73.31;101747.23;127472;1299;114862;-64
2023/02/04 10:04:35;;;;;;;9.10;4.40;;;;;;;1.85;73.38;101756.17;126968;1297;129957;-64
2023/02/04 10:08:37;;;;;;;11.80;5.30;;;;;;;1.79;73.16;101757.70;125426;1303;115347;-64
2023/02/04 10:12:36;;;;;;;;;;;;;;;;;;;;;
2023/02/04 10:21:00;;;;;;;8.90;5.10;;;;;;;1.89;73.47;101775.25;125560;1297;640554;-64
2023/02/04 10:25:00;;;;;;;;;;;;;;;;;;;;;
2023/02/04 10:29:04;;;;;;;7.30;3.90;;;;;;;1.84;72.86;101791.21;126444;1289;115425;-65
2023/02/04 10:32:54;;;;;;;9.60;4.20;;;;;;;1.89;73.03;101787.58;121632;1305;5459294;-65
2023/02/04 10:36:56;;;;;;;6.90;3.90;;;;;;;2.02;73.30;101789.64;125494;1320;114881;-64
2023/02/04 10:40:48;;;;;;;8.60;4.10;;;;;;;2.21;73.30;101782.42;124737;1328;114980;-64
2023/02/04 10:44:45;;;;;;;9.50;4.60;;;;;;;2.26;72.66;101780.17;124789;1327;115177;-65
2023/02/04 10:48:39;;;;;;;;;;;;;;;;;;;;;
2023/02/04 10:52:32;;;;;;;7.30;4.40;;;;;;;2.30;71.87;101795.71;123603;1319;115392;-64
2023/02/04 10:56:50;;;;;;;;;;;;;;;;;;;;;
2023/02/04 11:00:58;;;;;;;5.20;3.20;;;;;;;2.24;72.03;101805.73;128755;1283;127873;-64
2023/02/04 11:05:01;;;;;;;8.80;5.60;;;;;;;2.20;71.87;101815.71;128713;1270;114745;-64
2023/02/04 11:08:53;;;;;;;;;;;;;;;;;;;;;
2023/02/04 11:13:00;;;;;;;8.00;3.80;;;;;;;2.24;71.85;101827.21;127846;1284;115175;-65
2023/02/04 11:16:59;;;;;;;;;;;;;;;;;;;;;
2023/02/04 11:21:04;;;;;;;;;;;;;;;;;;;;;
2023/02/04 11:25:19;;;;;;;;;;;;;;;;;;;;;
2023/02/04 11:29:28;;;;;;;3.90;2.50;;;;;;;2.22;69.68;101838.48;127731;1284;128085;-64
2023/02/04 11:33:35;;;;;;;3.10;1.80;;;;;;;2.18;69.03;101845.31;127889;1301;115328;-64
2023/02/04 11:37:54;;;;;;;8.90;2.30;;;;;;;2.18;69.38;101853.77;124386;1278;5434479;-65
2023/02/04 11:41:58;;;;;;;6.10;2.60;;;;;;;2.14;68.64;101859.55;128153;1280;114749;-65
2023/02/04 11:46:00;;;;;;;9.00;3.20;;;;;;;2.16;68.73;101866.26;127657;1301;114761;-64
2023/02/04 11:50:00;;;;;;;;;;;;;;;;;;;;;
2023/02/04 11:58:10;;;;;;;5.80;2.30;;;;;;;2.27;66.06;101871.83;126202;1295;636535;-63
2023/02/04 12:02:13;;;;;;;;;;;;;;;;;;;;;
2023/02/04 12:05:57;;;;;;;;;;;;;;;;;;;;;
2023/02/04 12:10:00;;;;;;;5.70;2.60;;;;;;;2.00;65.68;101890.05;128525;1275;114887;-65
2023/02/04 12:14:02;;;;;;;10.30;3.10;;;;;;;1.94;64.93;101892.98;124153;1281;114855;-64
2023/02/04 12:18:16;;;;;;;7.70;2.70;;;;;;;1.90;65.12;101897.52;127395;1281;114782;-64
2023/02/04 12:22:18;;;;;;;6.20;3.60;;;;;;;1.88;64.86;101901.89;125899;1298;114962;-64
2023/02/04 12:26:16;;;;;;;;;;;;;;;;;;;;;
2023/02/04 12:30:17;;;;;;;;;;;;;;;;;;;;;
2023/02/04 12:34:40;;;;;;;4.90;2.40;;;;;;;1.90;63.90;101905.27;126263;1296;635937;-62
2023/02/04 12:38:41;;;;;;;3.30;1.80;;;;;;;1.91;63.50;101908.80;128640;1277;128716;-65
2023/02/04 12:42:43;;;;;;;5.10;2.20;;;;;;;1.98;64.13;101895.85;127675;1295;114873;-64
2023/02/04 12:46:46;;;;;;;7.10;3.20;;;;;;;2.06;63.04;101894.54;123120;1297;5577278;-64
2023/02/04 12:50:47;;;;;;;3.10;2.40;;;;;;;2.12;63.81;101895.66;125522;1301;114869;-63
2023/02/04 12:59:07;;;;;;;;;;;;;;;;;;;;;
2023/02/04 13:03:11;;;;;;;2.60;1.70;;;;;;;2.19;63.61;101901.38;127884;1285;127709;-65
2023/02/04 13:07:15;;;;;;;5.50;2.60;;;;;;;2.11;63.33;101904.80;126572;1291;115238;-63
2023/02/04 13:11:17;;;;;;;5.10;2.40;;;;;;;2.15;63.90;101910.14;121203;1321;5480318;-65
2023/02/04 13:19:39;;;;;;;5.10;2.40;;;;;;;2.32;63.84;101913.33;126385;1305;636811;-65
2023/02/04 13:23:25;;;;;;;;;;;;;;;;;;;;;
2023/02/04 13:27:10;;;;;;;5.50;2.90;;;;;;;2.32;63.62;101930.42;126825;1281;115294;-65
2023/02/04 13:31:39;;;;;;;5.30;1.80;;;;;;;2.28;62.54;101929.15;126505;1295;114887;-65
2023/02/04 13:34:47;;;;;;;10.80;2.50;;;;;;;2.20;62.70;101933.29;121916;1318;114940;-63
2023/02/04 13:38:49;;;;;;;2.80;1.60;;;;;;;2.12;62.42;101932.85;125820;1305;114882;-64
2023/02/04 13:42:49;;;;;;;;;;;;;;;;;;;;;
2023/02/04 13:50:57;;;;;;;;;;;;;;;;;;;;;
2023/02/04 13:55:00;;;;;;;7.40;2.70;;;;;;;1.90;62.90;101962.16;127530;1287;128827;-63
2023/02/04 13:59:04;;;;;;;8.50;2.90;;;;;;;1.74;64.13;101997.55;126827;1292;114983;-64
2023/02/04 14:02:57;;;;;;;;;;;;;;;;;;;;;
2023/02/04 14:06:43;;;;;;;;;;;;;;;;;;;;;
2023/02/04 14:10:26;;;;;;;;;;;;;;;;;;;;;
2023/02/04 14:14:35;;;;;;;;;;;;;;;;;;;;;
2023/02/04 14:18:23;;;;;;;;;;;;;;;;;;;;;
2023/02/04 14:22:18;;;;;;;10.50;4.20;;;;;;;0.65;67.49;101987.50;128935;1269;115326;-65
2023/02/04 14:26:05;;;;;;;12.20;5.30;;;;;;;0.61;67.75;101994.45;128858;1274;114927;-62
2023/02/04 14:29:58;;;;;;;13.20;5.60;;;;;;;0.58;67.95;101998.95;125339;1304;114945;-65
2023/02/04 14:33:49;;;;;;;;;;;;;;;;;;;;;
2023/02/04 14:37:51;;;;;;;9.90;4.40;;;;;;;0.62;67.99;102001.85;125281;1322;115452;-64
2023/02/04 14:41:33;;;;;;;;;;;;;;;;;;;;;
2023/02/04 14:45:44;;;;;;;12.40;6.30;;;;;;;0.67;68.39;102024.10;126496;1293;636037;-63
2023/02/04 14:49:49;;;;;;;9.60;2.80;;;;;;;0.62;69.41;102016.09;127898;1282;129391;-63
2023/02/04 14:53:44;;;;;;;6.00;3.00;;;;;;;0.44;69.97;102023.64;126521;1291;116710;-66
2023/02/04 14:57:49;;;;;;;5.40;2.80;;;;;;;0.23;70.29;102020.40;123764;1309;5447542;-63
2023/02/04 15:01:50;;;;;;;6.60;2.60;;;;;;;0.08;70.73;102013.95;125938;1315;114977;-63
2023/02/04 15:05:24;;;;;;;7.80;3.50;;;;;;;-0.02;71.08;102019.70;125424;1312;114898;-64
2023/02/04 15:09:26;;;;;;;10.50;5.00;;;;;;;-0.05;71.04;102023.15;125450;1303;128393;-64
2023/02/04 15:13:20;;;;;;;9.10;5.00;;;;;;;-0.09;71.15;102022.35;124838;1310;115452;-64
2023/02/04 15:17:05;;;;;;;;;;;;;;;;;;;;;
2023/02/04 15:25:25;;;;;;;;;;;;;;;;;;;;;
2023/02/04 15:29:17;;;;;;;10.30;4.40;;;;;;;-0.10;72.00;102021.45;127929;1281;127861;-64
2023/02/04 15:33:16;;;;;;;17.70;7.90;;;;;;;-0.09;72.02;102025.16;127924;1282;115221;-65
2023/02/04 15:37:12;;;;;;;23.00;10.70;;;;;;;-0.09;72.04;102028.50;123942;1294;7553952;-64
2023/02/04 15:41:14;;;;;;;11.90;4.80;;;;;;;-0.11;72.02;102033.04;125826;1316;114853;-64
2023/02/04 15:44:56;;;;;;;;;;;;;;;;;;;;;
2023/02/04 15:56:37;;;;;;;7.10;3.70;;;;;;;-0.18;72.07;102043.24;128538;1274;128887;-66
2023/02/04 16:00:06;;;;;;;6.70;3.40;;;;;;;-0.22;71.97;102043.85;128516;1296;115267;-63
2023/02/04 16:03:33;;;;;;;;;;;;;;;;;;;;;
2023/02/04 16:06:50;;;;;;;9.70;5.30;;;;;;;-0.37;71.83;102046.31;124264;1281;5624385;-68
2023/02/04 16:10:31;;;;;;;7.40;3.90;;;;;;;-0.44;71.40;102059.30;128328;1281;114781;-64
2023/02/04 16:13:45;;;;;;;;;;;;;;;;;;;;;
2023/02/04 16:17:49;;;;;;;7.40;4.20;;;;;;;-0.59;71.75;102064.55;127965;1297;127848;-65
2023/02/04 16:21:52;;;;;;;9.90;4.50;;;;;;;-0.68;71.67;102077.48;127403;1304;114945;-65
2023/02/04 16:25:42;;;;;;;10.90;4.80;;;;;;;-0.75;71.69;102079.41;125960;1316;114900;-64
2023/02/04 16:29:45;;;;;;;13.10;6.50;;;;;;;-0.81;71.56;102083.11;124903;1310;114907;-65
2023/02/04 16:33:45;;;;;;;16.50;7.20;;;;;;;-0.86;71.94;102084.04;124554;1326;115233;-65
2023/02/04 16:37:47;;;;;;;11.50;4.90;;;;;;;-0.88;71.76;102087.30;124134;1316;128860;-64
2023/02/04 16:46:18;;;;;;;12.90;6.10;;;;;;;-0.84;72.24;102092.50;126429;1291;639804;-65
2023/02/04 16:50:20;;;;;;;11.80;5.80;;;;;;;-0.84;72.20;102095.68;127722;1295;128968;-65
2023/02/04 16:54:13;;;;;;;;;;;;;;;;;;;;;
2023/02/04 16:58:08;;;;;;;;;;;;;;;;;;;;;
2023/02/04 17:14:39;;;;;;;;;;;;;;;;;;;;;
2023/02/04 17:17:58;;;;;;;14.90;6.40;;;;;;;-0.65;72.96;102101.58;127443;1305;114780;-64
2023/02/04 17:25:25;;;;;;;10.60;5.50;;;;;;;-0.64;72.71;102101.80;122315;1314;115162;-63
2023/02/04 17:29:10;;;;;;;29.90;10.60;;;;;;;-0.64;72.82;102106.70;126333;1296;114887;-66
2023/02/04 17:32:39;;;;;;;10.10;4.40;;;;;;;-0.63;72.77;102113.23;125529;1305;114900;-65
2023/02/04 17:36:17;;;;;;;13.40;5.20;;;;;;;-0.62;72.84;102115.20;125585;1312;130128;-65
2023/02/04 17:40:13;;;;;;;;;;;;;;;;;;;;;
2023/02/04 17:43:45;;;;;;;11.70;5.20;;;;;;;-0.59;72.82;102120.01;125169;1310;115023;-65
2023/02/04 17:47:35;;;;;;;12.60;5.60;;;;;;;-0.58;72.83;102116.17;125095;1308;115071;-64
2023/02/04 17:51:36;;;;;;;10.60;5.10;;;;;;;-0.57;72.92;102118.13;124766;1329;115001;-64
2023/02/04 17:55:41;;;;;;;10.70;5.00;;;;;;;-0.56;72.49;102118.30;124684;1312;129720;-64
2023/02/04 17:59:42;;;;;;;14.30;6.40;;;;;;;-0.55;73.08;102119.91;125135;1325;116548;-66
2023/02/04 18:03:22;;;;;;;12.70;6.60;;;;;;;-0.54;72.65;102124.48;125488;1316;114895;-66
2023/02/04 18:07:25;;;;;;;14.90;5.80;;;;;;;-0.55;72.74;102127.29;125537;1302;114974;-66
2023/02/04 18:11:13;;;;;;;;;;;;;;;;;;;;;
2023/02/04 18:15:14;;;;;;;14.20;5.40;;;;;;;-0.58;72.19;102128.80;124326;1313;129765;-65
2023/02/04 18:19:18;;;;;;;14.70;5.30;;;;;;;-0.59;72.02;102128.08;124171;1319;114875;-66
2023/02/04 18:23:06;;;;;;;;;;;;;;;;;;;;;
2023/02/04 18:27:18;;;;;;;12.30;5.10;;;;;;;-0.62;71.43;102129.06;125166;1322;114859;-65
2023/02/04 18:31:18;;;;;;;9.50;3.60;;;;;;;-0.63;71.08;102141.13;124279;1327;114889;-66
2023/02/04 18:35:20;;;;;;;11.60;3.60;;;;;;;-0.63;70.19;102156.20;123983;1311;129840;-65
2023/02/04 18:39:09;;;;;;;13.90;5.40;;;;;;;-0.63;70.76;102148.66;124465;1314;115321;-66
2023/02/04 18:47:11;;;;;;;;;;;;;;;;;;;;;
2023/02/04 18:51:17;;;;;;;11.00;4.90;;;;;;;-0.58;70.50;102178.98;128376;1278;128551;-66
2023/02/04 18:55:29;;;;;;;;;;;;;;;;;;;;;
2023/02/04 18:59:44;;;;;;;11.60;5.00;;;;;;;-0.60;71.04;102190.16;122906;1290;5428267;-66
2023/02/04 19:04:07;;;;;;;9.10;4.10;;;;;;;-0.67;71.25;102187.70;125826;1318;114809;-66
2023/02/04 19:07:56;;;;;;;;;;;;;;;;;;;;;
2023/02/04 19:12:03;;;;;;;;;;;;;;;;;;;;;
2023/02/04 19:20:05;;;;;;;;;;;;;;;;;;;;;
2023/02/04 19:23:49;;;;;;;10.00;5.00;;;;;;;-0.94;71.21;102198.55;128979;1269;128802;-64
2023/02/04 19:28:10;;;;;;;12.20;5.10;;;;;;;-0.97;71.41;102197.56;128954;1280;114680;-66
2023/02/04 19:31:47;;;;;;;16.10;8.00;;;;;;;-0.97;71.05;102198.59;124993;1270;5458296;-65
2023/02/04 19:35:36;;;;;;;18.80;7.70;;;;;;;-0.96;71.57;102196.89;129236;1267;114758;-65
2023/02/04 19:39:29;;;;;;;;;;;;;;;;;;;;;
2023/02/04 19:43:29;;;;;;;;;;;;;;;;;;;;;
2023/02/04 19:47:32;;;;;;;16.30;10.30;;;;;;;-0.93;70.72;102204.52;128041;1278;128435;-64
2023/02/04 19:51:25;;;;;;;10.90;4.90;;;;;;;-0.95;70.81;102206.73;127345;1305;114993;-66
2023/02/04 19:55:22;;;;;;;;;;;;;;;;;;;;;
2023/02/04 19:58:58;;;;;;;7.00;3.10;;;;;;;-1.02;70.50;102206.70;126115;1308;114842;-65
2023/02/04 20:02:58;;;;;;;15.20;5.40;;;;;;;-1.09;70.92;102212.66;126432;1295;114958;-65
2023/02/04 20:07:04;;;;;;;;;;;;;;;;;;;;;
2023/02/04 20:10:50;;;;;;;9.80;5.00;;;;;;;-1.19;70.93;102219.90;125699;1308;114782;-64
2023/02/04 20:14:34;;;;;;;12.20;5.50;;;;;;;-1.18;70.84;102223.08;125707;1319;114885;-64
2023/02/04 20:18:18;;;;;;;18.00;4.90;;;;;;;-1.17;70.88;102227.85;126017;1299;114923;-63
2023/02/04 20:22:19;;;;;;;11.00;4.80;;;;;;;-1.16;70.50;102225.94;126025;1316;114997;-64
2023/02/04 20:26:09;;;;;;;12.10;5.10;;;;;;;-1.22;70.80;102230.85;125479;1305;129776;-65
2023/02/04 20:34:27;;;;;;;13.60;5.90;;;;;;;-1.40;70.64;102237.84;125457;1320;114934;-66
2023/02/04 20:38:32;;;;;;;11.10;4.80;;;;;;;-1.49;70.96;102245.96;125672;1319;116505;-64
2023/02/04 20:42:33;;;;;;;19.10;7.40;;;;;;;-1.58;70.80;102248.84;126501;1286;114735;-65
2023/02/04 20:46:59;;;;;;;16.50;6.00;;;;;;;-1.66;71.12;102249.11;126660;1290;128627;-64
2023/02/04 20:51:01;;;;;;;15.80;5.00;;;;;;;-1.74;71.24;102257.08;126098;1308;115282;-62
2023/02/04 20:54:48;;;;;;;17.50;6.80;;;;;;;-1.82;71.29;102256.82;126379;1297;115257;-65
2023/02/04 20:58:36;;;;;;;;;;;;;;;;;;;;;
2023/02/04 21:02:16;;;;;;;;;;;;;;;;;;;;;
2023/02/04 21:05:56;;;;;;;;;;;;;;;;;;;;;
2023/02/04 21:09:56;;;;;;;12.20;6.30;;;;;;;-2.09;71.71;102269.59;125468;1313;115361;-62
2023/02/04 21:13:58;;;;;;;19.50;5.90;;;;;;;-2.16;71.83;102269.18;126064;1295;114983;-64
2023/02/04 21:17:35;;;;;;;10.50;4.50;;;;;;;-2.22;71.90;102269.30;126151;1297;114940;-64
2023/02/04 21:21:29;;;;;;;;;;;;;;;;;;;;;
2023/02/04 21:25:10;;;;;;;16.90;6.00;;;;;;;-2.33;72.28;102283.63;125871;1295;130771;-63
2023/02/04 21:29:02;;;;;;;14.50;5.30;;;;;;;-2.37;72.52;102284.36;126265;1311;115036;-63
2023/02/04 21:32:30;;;;;;;;;;;;;;;;;;;;;
2023/02/04 21:36:30;;;;;;;;;;;;;;;;;;;;;
2023/02/04 21:40:24;;;;;;;;;;;;;;;;;;;;;
2023/02/04 21:44:11;;;;;;;11.80;5.40;;;;;;;-2.52;72.73;102290.30;126150;1292;128369;-62
2023/02/04 21:52:18;;;;;;;14.20;5.60;;;;;;;-2.60;72.72;102290.72;126529;1304;114882;-66
2023/02/04 21:55:33;;;;;;;19.40;7.30;;;;;;;-2.64;72.81;102289.88;125787;1317;116442;-65
2023/02/04 21:58:47;;;;;;;33.20;11.80;;;;;;;-2.66;72.92;102294.70;125720;1300;115160;-62
2023/02/04 22:01:55;;;;;;;35.70;12.40;;;;;;;-2.69;72.95;102298.75;125786;1301;130232;-64
2023/02/04 22:04:59;;;;;;;31.90;11.50;;;;;;;-2.70;73.20;102304.34;125763;1317;116514;-65
2023/02/04 22:08:20;;;;;;;24.70;8.80;;;;;;;-2.73;73.25;102303.52;125940;1292;114879;-66
2023/02/04 22:11:59;;;;;;;23.50;9.40;;;;;;;-2.71;73.48;102310.75;126231;1292;114983;-62
2023/02/04 22:19:30;;;;;;;;;;;;;;;;;;;;;
2023/02/04 22:23:33;;;;;;;15.00;6.20;;;;;;;-2.62;73.90;102321.08;126726;1284;116625;-63
2023/02/04 22:27:27;;;;;;;;;;;;;;;;;;;;;
2023/02/04 22:31:22;;;;;;;;;;;;;;;;;;;;;
2023/02/04 22:34:57;;;;;;;;;;;;;;;;;;;;;
2023/02/04 22:38:43;;;;;;;15.40;5.90;;;;;;;-2.32;73.69;102319.00;127136;1283;128633;-62
2023/02/04 22:42:43;;;;;;;;;;;;;;;;;;;;;
2023/02/04 22:50:34;;;;;;;18.10;6.30;;;;;;;-2.09;73.02;102322.29;126143;1292;636833;-61
2023/02/04 22:54:12;;;;;;;14.00;5.80;;;;;;;-2.04;73.78;102325.76;128627;1284;127808;-63
2023/02/04 23:02:08;;;;;;;;;;;;;;;;;;;;;
2023/02/04 23:05:55;;;;;;;19.70;7.30;;;;;;;-1.94;73.45;102317.88;123520;1292;114966;-64
2023/02/04 23:09:50;;;;;;;15.50;6.10;;;;;;;-1.96;73.10;102314.14;126603;1309;114865;-61
2023/02/04 23:13:43;;;;;;;;;;;;;;;;;;;;;
2023/02/04 23:21:35;;;;;;;16.70;6.40;;;;;;;-2.12;72.88;102317.29;126344;1292;635934;-62
2023/02/04 23:25:22;;;;;;;11.70;5.10;;;;;;;-2.21;72.92;102316.96;129128;1269;128956;-62
2023/02/04 23:29:03;;;;;;;15.70;5.60;;;;;;;-2.29;73.05;102320.34;127877;1295;115205;-62
2023/02/04 23:32:36;;;;;;;;;;;;;;;;;;;;;
2023/02/04 23:36:24;;;;;;;14.60;6.90;;;;;;;-2.40;73.20;102315.92;123898;1302;114875;-63